Погода Тупчина неделю

Минская область, Белоруссия

25 - 31 мая
  • 25мая
    Сегодня
    +12°
    +25°
    Небольшая облачность
    ВремяПогодаТемператураВлажностьДавлениеВетер, м/сВероятность осадков
    00:00Небольшая облачность+16°C72 %745 мм3.3 м/с2 %
    03:00Небольшая облачность+15°C69 %745 мм4.0 м/с2 %
    06:00Облачно с прояснениями+14°C65 %745 мм4.1 м/с2 %
    09:00Небольшая облачность+19°C63 %745 мм3.4 м/с1 %
    12:00Небольшая облачность+23°C50 %745 мм4.2 м/с2 %
    15:00Небольшая облачность+24°C45 %744 мм5.2 м/с18 %
    18:00Облачно с прояснениями+24°C43 %744 мм4.8 м/с28 %
    21:00Облачно с прояснениями+19°C81 %744 мм1.1 м/с18 %
  • 26мая
    Воскресенье
    +13°
    +25°
    Ясно и безоблачно
    ВремяПогодаТемператураВлажностьДавлениеВетер, м/сВероятность осадков
    00:00Облачно с прояснениями+16°C80 %744 мм2.3 м/с2 %
    03:00Облачно с прояснениями+15°C67 %744 мм2.9 м/с5 %
    06:00Облачно с прояснениями+13°C70 %745 мм1.7 м/с2 %
    09:00Ясно и безоблачно+19°C52 %745 мм2.1 м/с2 %
    12:00Ясно и безоблачно+23°C33 %746 мм4.1 м/с2 %
    15:00Ясно и безоблачно+25°C31 %745 мм3.4 м/с2 %
    18:00Ясно и безоблачно+24°C33 %745 мм3.0 м/с2 %
    21:00Ясно и безоблачно+20°C57 %744 мм2.4 м/с2 %
  • 27мая
    Понедельник
    +14°
    +26°
    Практически безоблачно
    ВремяПогодаТемператураВлажностьДавлениеВетер, м/сВероятность осадков
    00:00Ясно и безоблачно+16°C58 %745 мм1.7 м/с2 %
    03:00Ясно и безоблачно+18°C45 %745 мм0.2 м/с2 %
    06:00Ясно и безоблачно+15°C63 %744 мм1.6 м/с2 %
    09:00Ясно и безоблачно+20°C48 %745 мм1.8 м/с2 %
    12:00Практически безоблачно+25°C37 %745 мм2.7 м/с2 %
    15:00Практически безоблачно+26°C35 %744 мм2.9 м/с2 %
    18:00Ясно и безоблачно+25°C37 %743 мм2.5 м/с8 %
    21:00Ясно и безоблачно+21°C62 %742 мм1.9 м/с4 %
  • 28мая
    Вторник
    +14°
    +26°
    Ясно и безоблачно
    ВремяПогодаТемператураВлажностьДавлениеВетер, м/сВероятность осадков
    00:00Ясно и безоблачно+16°C67 %742 мм2.1 м/с2 %
    03:00Ясно и безоблачно+14°C75 %742 мм2.0 м/с2 %
    06:00Ясно и безоблачно+15°C77 %742 мм1.3 м/с2 %
    09:00Ясно и безоблачно+21°C49 %742 мм1.7 м/с2 %
    12:00Ясно и безоблачно+24°C37 %742 мм3.0 м/с2 %
    15:00Ясно и безоблачно+25°C33 %741 мм3.1 м/с9 %
    18:00Практически безоблачно+24°C35 %739 мм2.6 м/с19 %
    21:00Ясно и безоблачно+21°C59 %739 мм1.9 м/с5 %
  • 29мая
    Среда
    +14°
    +28°
    Облачно с прояснениями
    ВремяПогодаТемператураВлажностьДавлениеВетер, м/сВероятность осадков
    00:00Ясно и безоблачно+18°C65 %739 мм2.4 м/с2 %
    03:00Практически безоблачно+15°C82 %738 мм2.4 м/с2 %
    06:00Ясно и безоблачно+14°C86 %738 мм2.0 м/с3 %
    09:00Пасмурно, сплошная облачность+19°C71 %738 мм1.8 м/с5 %
    12:00Облачно с прояснениями+25°C45 %738 мм2.7 м/с11 %
    15:00Облачно с прояснениями+27°C30 %737 мм3.7 м/с27 %
    18:00Небольшая облачность+27°C28 %736 мм3.3 м/с35 %
    21:00Практически безоблачно+21°C58 %736 мм1.1 м/с15 %
Мы используем cookies
Соглашаюсь